Time;durP1;ratioP1;P1;durP2;ratioP2;P2;SDS_P1;SDS_P2;PMS_P1;PMS_P2;Temp;Humidity;BMP_temperature;BMP_pressure;BME280_temperature;BME280_humidity;BME280_pressure;Samples;Min_cycle;Max_cycle;Signal;HPM_P1;HPM_P2
2022/11/23 00:01:22;;;;;;;10.90;2.80;;;;;;;9.62;84.88;99327.31;3615349;39;20058;-64
2022/11/23 00:03:51;;;;;;;12.55;3.58;;;;;;;9.38;85.31;99284.56;3617370;39;20474;-64
2022/11/23 00:06:20;;;;;;;14.68;3.38;;;;;;;9.66;84.74;99335.97;3617832;39;20051;-64
2022/11/23 00:08:46;;;;;;;13.57;3.40;;;;;;;9.66;84.73;99328.78;3620221;39;20053;-64
2022/11/23 00:11:13;;;;;;;10.48;2.78;;;;;;;9.62;84.96;99324.63;3618672;39;20296;-64
2022/11/23 00:13:39;;;;;;;12.80;3.33;;;;;;;9.63;84.49;99337.06;3620471;39;20066;-64
2022/11/23 00:16:13;;;;;;;10.73;2.72;;;;;;;9.61;84.82;99332.81;3615732;39;20068;-64
2022/11/23 00:18:39;;;;;;;9.57;2.65;;;;;;;9.67;84.50;99330.50;3616024;39;20518;-64
2022/11/23 00:21:15;;;;;;;14.57;2.97;;;;;;;9.66;84.02;99338.66;3615410;39;20085;-65
2022/11/23 00:23:42;;;;;;;13.38;2.97;;;;;;;9.68;84.19;99334.03;3615711;39;20047;-64
2022/11/23 00:26:08;;;;;;;9.63;2.72;;;;;;;9.66;83.85;99336.81;3620234;39;20046;-64
2022/11/23 00:28:37;;;;;;;6.72;2.63;;;;;;;9.40;83.90;99293.34;3609179;39;20062;-64
2022/11/23 00:31:04;;;;;;;8.48;2.90;;;;;;;9.68;83.52;99344.75;3615609;39;20388;-64
2022/11/23 00:33:29;;;;;;;12.55;3.33;;;;;;;9.68;83.53;99350.97;3615074;39;20055;-65
2022/11/23 00:36:04;;;;;;;10.07;2.67;;;;;;;9.67;83.74;99351.06;3618494;39;20052;-64
2022/11/23 00:38:30;;;;;;;10.55;2.75;;;;;;;9.68;84.04;99350.13;3615669;39;20053;-65
2022/11/23 00:41:10;;;;;;;10.98;2.80;;;;;;;9.68;83.45;99355.50;3615267;39;20119;-64
2022/11/23 00:43:35;;;;;;;10.18;2.80;;;;;;;9.70;84.04;99353.50;3618092;39;20787;-64
2022/11/23 00:46:23;;;;;;;11.70;2.88;;;;;;;9.69;83.43;99349.97;3619481;39;20069;-64
2022/11/23 00:48:53;;;;;;;11.18;3.05;;;;;;;9.68;83.08;99350.13;3615731;39;20051;-65
2022/11/23 00:51:27;;;;;;;10.82;2.47;;;;;;;9.66;83.16;99352.91;3615324;39;20114;-64
2022/11/23 00:53:53;;;;;;;13.27;2.72;;;;;;;9.71;83.41;99360.59;3616137;39;20069;-64
2022/11/23 00:56:20;;;;;;;7.65;2.40;;;;;;;9.70;82.32;99364.25;3616660;39;20053;-64
2022/11/23 00:58:50;;;;;;;14.63;2.88;;;;;;;9.70;82.55;99365.09;3616617;39;20054;-64
2022/11/23 01:01:19;;;;;;;13.48;3.38;;;;;;;9.71;82.56;99357.94;3616883;39;20083;-64
2022/11/23 01:03:49;;;;;;;10.07;2.65;;;;;;;9.69;82.74;99362.56;3604527;39;21066;-65
2022/11/23 01:06:25;;;;;;;8.60;2.42;;;;;;;9.66;82.16;99349.38;3618973;39;20094;-65
2022/11/23 01:08:54;;;;;;;10.00;3.20;;;;;;;9.70;82.27;99361.56;3615319;39;20055;-64
2022/11/23 01:11:23;;;;;;;9.65;2.75;;;;;;;9.49;81.86;99324.78;3617292;39;20051;-65
2022/11/23 01:13:49;;;;;;;10.25;2.75;;;;;;;9.69;81.96;99357.19;3616676;39;20061;-65
2022/11/23 01:16:21;;;;;;;9.75;2.85;;;;;;;9.69;81.95;99363.41;3617196;39;20370;-65
2022/11/23 01:18:50;;;;;;;10.25;2.78;;;;;;;9.71;81.39;99365.97;3614860;39;20305;-64
2022/11/23 01:21:16;;;;;;;5.82;1.92;;;;;;;9.57;81.60;99352.81;3615473;39;20102;-64
2022/11/23 01:23:41;;;;;;;8.45;2.13;;;;;;;9.70;81.39;99359.72;3615624;39;20317;-65
2022/11/23 01:26:10;;;;;;;9.23;2.30;;;;;;;9.71;81.74;99366.81;3613559;39;20047;-64
2022/11/23 01:28:38;;;;;;;9.35;2.47;;;;;;;9.68;81.01;99366.22;3615970;39;20099;-65
2022/11/23 01:31:13;;;;;;;13.48;2.38;;;;;;;9.74;81.44;99373.78;3616579;39;20090;-65
2022/11/23 01:33:40;;;;;;;10.43;2.33;;;;;;;9.76;80.88;99371.78;3615950;39;20131;-65
2022/11/23 01:36:19;;;;;;;11.50;2.78;;;;;;;9.76;80.86;99374.47;3613298;39;20405;-65
2022/11/23 01:38:47;;;;;;;7.45;2.42;;;;;;;9.79;80.44;99376.91;3613502;39;20171;-64
2022/11/23 01:41:21;;;;;;;13.63;2.50;;;;;;;9.81;80.23;99376.81;3614751;39;20059;-65
2022/11/23 01:43:48;;;;;;;7.40;2.38;;;;;;;9.77;80.80;99398.53;3616981;39;20077;-65
2022/11/23 01:46:14;;;;;;;7.30;2.00;;;;;;;9.76;80.98;99399.47;3613092;39;21433;-65
2022/11/23 01:48:48;;;;;;;8.70;2.20;;;;;;;9.72;80.48;99383.75;3617196;39;20059;-65
2022/11/23 01:51:20;;;;;;;7.70;2.45;;;;;;;9.70;81.02;99374.97;3617021;39;20094;-65
2022/11/23 01:53:53;;;;;;;10.73;2.43;;;;;;;9.77;80.82;99387.78;3616323;39;20290;-65
2022/11/23 01:56:29;;;;;;;9.05;2.30;;;;;;;9.82;80.82;99390.09;3617500;39;20050;-65
2022/11/23 01:59:03;;;;;;;7.90;2.05;;;;;;;9.78;79.89;99375.22;3619210;39;20349;-65
2022/11/23 02:01:29;;;;;;;10.30;2.33;;;;;;;9.83;79.85;99386.44;3615963;39;20327;-65
2022/11/23 02:03:59;;;;;;;9.05;2.05;;;;;;;9.77;80.17;99378.88;3615489;39;20043;-64
2022/11/23 02:06:25;;;;;;;7.05;2.10;;;;;;;9.85;79.87;99400.56;3615605;39;20062;-65
2022/11/23 02:08:52;;;;;;;6.32;2.17;;;;;;;9.81;80.34;99393.75;3616151;39;20091;-66
2022/11/23 02:11:18;;;;;;;9.88;2.30;;;;;;;9.81;80.25;99407.19;3615252;39;20066;-65
2022/11/23 02:13:47;;;;;;;9.07;1.98;;;;;;;9.83;79.41;99397.19;3618417;39;20373;-65
2022/11/23 02:16:14;;;;;;;7.80;2.10;;;;;;;9.85;79.87;99399.72;3615888;39;20060;-65
2022/11/23 02:18:47;;;;;;;6.70;1.70;;;;;;;9.86;79.39;99407.63;3616492;39;20067;-65
2022/11/23 02:21:13;;;;;;;6.20;2.03;;;;;;;9.87;79.43;99413.88;3616555;39;20316;-65
2022/11/23 02:24:03;;;;;;;10.77;2.40;;;;;;;9.87;79.05;99404.00;3620451;39;20058;-65
2022/11/23 02:26:35;;;;;;;10.32;2.50;;;;;;;9.88;78.89;99404.84;3616475;39;20051;-65
2022/11/23 02:29:10;;;;;;;8.00;2.20;;;;;;;9.77;79.40;99382.41;3614515;39;20053;-65
2022/11/23 02:31:36;;;;;;;6.97;2.10;;;;;;;9.89;79.50;99412.75;3615017;39;20070;-65
2022/11/23 02:34:02;;;;;;;12.20;2.38;;;;;;;9.88;79.10;99410.22;3616599;39;20054;-65
2022/11/23 02:36:38;;;;;;;10.65;2.13;;;;;;;9.88;79.45;99415.56;3617485;39;20427;-64
2022/11/23 02:39:17;;;;;;;9.13;2.00;;;;;;;9.89;79.33;99412.75;3618208;39;20062;-65
2022/11/23 02:41:51;;;;;;;11.20;2.42;;;;;;;9.90;79.76;99421.69;3617424;39;20070;-65
2022/11/23 02:45:11;;;;;;;10.40;1.98;;;;;;;9.89;79.55;99411.91;3613218;39;20058;-65
2022/11/23 02:47:37;;;;;;;11.20;2.33;;;;;;;9.64;79.48;99375.47;3606084;39;20054;-64
2022/11/23 02:50:03;;;;;;;10.25;2.55;;;;;;;9.88;79.51;99415.56;3615889;39;20051;-65
2022/11/23 02:52:28;;;;;;;8.75;2.22;;;;;;;9.86;80.31;99415.69;3615331;39;20047;-65
2022/11/23 02:54:54;;;;;;;13.18;2.70;;;;;;;9.85;79.66;99422.03;3612466;39;20055;-65
2022/11/23 02:57:19;;;;;;;12.80;2.65;;;;;;;9.84;80.12;99414.97;3617221;39;20054;-65
2022/11/23 02:59:45;;;;;;;9.32;2.42;;;;;;;9.78;80.48;99407.41;3615534;39;20376;-65
2022/11/23 03:02:11;;;;;;;10.05;2.60;;;;;;;9.77;80.62;99408.41;3615639;39;20055;-66
2022/11/23 03:04:36;;;;;;;9.55;2.83;;;;;;;9.81;80.50;99415.22;3606950;39;20309;-65
2022/11/23 03:07:02;;;;;;;8.27;2.20;;;;;;;9.81;80.95;99417.06;3617535;39;20059;-65
2022/11/23 03:09:28;;;;;;;7.43;2.80;;;;;;;9.80;80.19;99421.56;3617503;39;20398;-66
2022/11/23 03:11:54;;;;;;;8.98;2.67;;;;;;;9.80;80.17;99423.38;3617388;39;20118;-65
2022/11/23 03:14:20;;;;;;;12.00;2.45;;;;;;;9.77;80.36;99421.81;3621344;39;20456;-65
2022/11/23 03:16:46;;;;;;;12.65;2.50;;;;;;;9.75;79.80;99421.94;3616552;39;20055;-65
2022/11/23 03:19:12;;;;;;;10.02;2.83;;;;;;;9.77;79.87;99422.69;3618701;39;20304;-65
2022/11/23 03:21:37;;;;;;;12.18;2.67;;;;;;;9.75;79.74;99415.72;3614810;39;20056;-65
2022/11/23 03:24:03;;;;;;;11.57;2.80;;;;;;;9.76;79.62;99425.47;3619421;39;20066;-65
2022/11/23 03:26:28;;;;;;;12.35;2.75;;;;;;;9.73;79.52;99429.25;3616027;39;20301;-65
2022/11/23 03:28:54;;;;;;;16.75;3.00;;;;;;;9.73;80.25;99423.03;3617302;39;20373;-65
2022/11/23 03:31:20;;;;;;;9.23;2.15;;;;;;;9.71;79.51;99420.50;3615782;39;20051;-64
2022/11/23 03:33:46;;;;;;;12.10;2.67;;;;;;;9.68;80.14;99422.56;3615439;39;20070;-65
2022/11/23 03:36:11;;;;;;;10.82;2.70;;;;;;;9.72;79.42;99421.34;3615353;39;20643;-65
2022/11/23 03:38:37;;;;;;;9.95;3.05;;;;;;;9.73;80.08;99428.41;3616026;39;20469;-65
2022/11/23 03:41:02;;;;;;;11.68;2.70;;;;;;;9.71;79.82;99419.63;3613612;39;20105;-65
2022/11/23 03:43:28;;;;;;;17.30;2.85;;;;;;;9.71;79.46;99427.69;3615139;39;20074;-65
2022/11/23 03:45:53;;;;;;;12.52;2.45;;;;;;;9.68;79.05;99411.84;3615947;39;20054;-65
2022/11/23 03:48:19;;;;;;;9.77;2.33;;;;;;;9.73;79.48;99417.66;3616949;39;20073;-64
2022/11/23 03:50:45;;;;;;;9.70;2.28;;;;;;;9.72;78.76;99421.34;3616374;39;20052;-64
2022/11/23 03:53:11;;;;;;;15.98;2.60;;;;;;;9.71;79.05;99423.16;3614283;39;20061;-65
2022/11/23 03:55:37;;;;;;;7.75;2.30;;;;;;;9.71;78.85;99419.63;3613408;39;20123;-64
2022/11/23 03:58:03;;;;;;;10.57;2.42;;;;;;;9.69;78.76;99417.06;3615132;39;20089;-65
2022/11/23 04:00:30;;;;;;;14.32;2.92;;;;;;;9.68;78.80;99414.53;3614216;39;20379;-65
2022/11/23 04:02:56;;;;;;;11.23;2.83;;;;;;;9.69;78.17;99421.56;3613572;39;20054;-65
2022/11/23 04:05:22;;;;;;;11.77;2.88;;;;;;;9.68;78.43;99419.88;3616160;39;20055;-64
2022/11/23 04:07:49;;;;;;;13.02;3.58;;;;;;;9.71;78.21;99436.59;3613983;39;20417;-65
2022/11/23 04:10:17;;;;;;;11.38;3.15;;;;;;;9.70;78.07;99425.97;3619706;39;20314;-65
2022/11/23 04:12:42;;;;;;;14.82;2.85;;;;;;;9.71;78.06;99430.38;3616088;39;20060;-64
2022/11/23 04:15:09;;;;;;;9.98;2.65;;;;;;;9.61;77.71;99413.28;3615129;39;20051;-64
2022/11/23 04:17:35;;;;;;;12.63;3.05;;;;;;;9.65;78.13;99420.13;3616456;39;20653;-64
2022/11/23 04:20:01;;;;;;;10.18;2.55;;;;;;;9.69;77.19;99419.75;3611886;39;20098;-65
2022/11/23 04:22:26;;;;;;;14.25;2.72;;;;;;;9.74;77.59;99424.75;3617675;39;20062;-65
2022/11/23 04:24:52;;;;;;;9.68;2.72;;;;;;;9.68;77.08;99415.38;3613898;39;20058;-65
2022/11/23 04:27:18;;;;;;;10.93;2.83;;;;;;;9.76;76.76;99429.00;3605262;39;20062;-65
2022/11/23 04:29:43;;;;;;;10.60;2.67;;;;;;;9.77;76.80;99419.16;3615621;39;20050;-65
2022/11/23 04:32:09;;;;;;;11.43;3.00;;;;;;;9.72;76.84;99411.44;3613776;39;20415;-65
2022/11/23 04:34:34;;;;;;;16.50;2.60;;;;;;;9.72;76.27;99418.66;3612531;39;20062;-65
2022/11/23 04:37:00;;;;;;;13.00;3.20;;;;;;;9.72;75.70;99424.03;3616154;39;20062;-64
2022/11/23 04:39:26;;;;;;;11.52;2.47;;;;;;;9.71;75.89;99419.63;3620199;39;20044;-64
2022/11/23 04:41:51;;;;;;;12.07;3.28;;;;;;;9.70;76.04;99423.28;3618132;39;20361;-64
2022/11/23 04:44:19;;;;;;;12.10;2.70;;;;;;;9.72;75.50;99424.03;3612964;39;20074;-64
2022/11/23 04:46:46;;;;;;;11.55;2.78;;;;;;;9.70;75.21;99424.13;3618074;39;20046;-64
2022/11/23 04:49:11;;;;;;;9.10;2.47;;;;;;;9.69;76.03;99425.09;3617735;39;20057;-63
2022/11/23 04:51:37;;;;;;;11.38;2.60;;;;;;;9.63;75.57;99427.44;3619121;39;20046;-64
2022/11/23 04:54:03;;;;;;;8.55;2.33;;;;;;;9.54;75.75;99429.88;3622828;39;20062;-64
2022/11/23 04:56:29;;;;;;;12.52;2.67;;;;;;;9.53;75.98;99427.31;3620174;39;20305;-64
2022/11/23 04:58:54;;;;;;;10.77;2.70;;;;;;;9.46;75.52;99426.97;3617528;39;20047;-64
2022/11/23 05:01:20;;;;;;;10.38;2.60;;;;;;;9.41;76.17;99429.16;3616408;39;20779;-64
2022/11/23 05:03:46;;;;;;;14.32;2.78;;;;;;;9.36;76.22;99426.00;3616381;39;20042;-63
2022/11/23 05:06:11;;;;;;;11.07;2.53;;;;;;;9.29;76.12;99430.13;3617572;39;20065;-64
2022/11/23 05:08:37;;;;;;;14.27;2.50;;;;;;;9.22;76.92;99423.53;3614636;39;20051;-64
2022/11/23 05:11:02;;;;;;;8.27;2.58;;;;;;;9.19;76.22;99415.72;3616742;39;20058;-64
2022/11/23 05:13:28;;;;;;;12.07;3.08;;;;;;;9.15;76.69;99419.63;3618068;39;20084;-64
2022/11/23 05:15:54;;;;;;;13.82;2.83;;;;;;;9.15;76.51;99411.59;3617167;39;20051;-64
2022/11/23 05:18:19;;;;;;;13.55;3.30;;;;;;;9.16;77.28;99413.28;3617333;39;20046;-64
2022/11/23 05:20:45;;;;;;;15.50;3.20;;;;;;;9.14;77.48;99412.59;3613175;39;20070;-63
2022/11/23 05:23:11;;;;;;;13.60;2.80;;;;;;;9.13;76.75;99408.16;3615243;39;20185;-64
2022/11/23 05:25:37;;;;;;;14.57;3.40;;;;;;;9.13;76.83;99421.56;3619083;39;20053;-64
2022/11/23 05:28:03;;;;;;;14.63;3.17;;;;;;;9.11;76.72;99413.66;3615380;39;20170;-64
2022/11/23 05:30:29;;;;;;;19.48;4.32;;;;;;;9.13;76.77;99418.91;3616036;39;20090;-64
2022/11/23 05:33:02;;;;;;;13.07;2.70;;;;;;;9.11;76.50;99415.50;3612189;39;20454;-64
2022/11/23 05:35:29;;;;;;;17.65;3.53;;;;;;;9.10;76.89;99403.06;3620183;39;20417;-64
2022/11/23 05:37:55;;;;;;;17.23;3.60;;;;;;;9.07;76.81;99409.53;3615065;39;20046;-63
2022/11/23 05:40:21;;;;;;;14.07;3.15;;;;;;;9.13;76.32;99418.91;3614164;39;20054;-64
2022/11/23 05:42:46;;;;;;;15.02;3.75;;;;;;;9.13;76.83;99419.75;3614458;39;20054;-64
2022/11/23 05:45:12;;;;;;;15.43;3.65;;;;;;;9.12;76.44;99422.56;3612436;39;20397;-64
2022/11/23 05:47:37;;;;;;;13.50;3.38;;;;;;;9.06;76.67;99422.06;3617302;39;20054;-64
2022/11/23 05:50:04;;;;;;;14.88;2.90;;;;;;;9.06;76.44;99427.41;3614200;39;20119;-64
2022/11/23 05:52:30;;;;;;;15.45;2.97;;;;;;;9.05;76.21;99432.91;3614996;39;20081;-64
2022/11/23 05:54:55;;;;;;;13.43;3.28;;;;;;;9.07;76.21;99425.63;3611455;39;20059;-64
2022/11/23 05:57:21;;;;;;;14.07;3.90;;;;;;;9.05;77.17;99428.41;3613140;39;20054;-64
2022/11/23 05:59:48;;;;;;;16.98;3.97;;;;;;;9.01;77.08;99424.25;3616946;39;20042;-63
2022/11/23 06:02:13;;;;;;;15.77;3.08;;;;;;;9.01;76.66;99426.94;3616610;39;20311;-64
2022/11/23 06:04:39;;;;;;;16.48;3.53;;;;;;;9.03;76.61;99424.97;3614612;39;20084;-64
2022/11/23 06:07:05;;;;;;;12.05;3.25;;;;;;;9.05;76.53;99431.06;3616045;39;20098;-63
2022/11/23 06:09:30;;;;;;;14.60;2.92;;;;;;;9.03;77.25;99422.28;3612720;39;20047;-64
2022/11/23 06:11:56;;;;;;;12.90;3.00;;;;;;;9.08;76.80;99421.94;3615801;39;20050;-64
2022/11/23 06:14:22;;;;;;;17.27;3.50;;;;;;;9.11;77.25;99427.06;3617435;39;20082;-63
2022/11/23 06:16:47;;;;;;;14.00;3.30;;;;;;;9.06;76.32;99416.69;3620847;39;20046;-63
2022/11/23 06:19:13;;;;;;;17.02;3.35;;;;;;;9.14;76.84;99432.19;3614402;39;20101;-64
2022/11/23 06:21:39;;;;;;;20.10;4.28;;;;;;;9.17;76.05;99436.47;3613173;39;20046;-64
2022/11/23 06:24:05;;;;;;;13.63;3.20;;;;;;;9.17;76.29;99437.31;3617054;39;20043;-65
2022/11/23 06:26:30;;;;;;;14.82;3.17;;;;;;;9.17;76.59;99441.81;3616137;39;20099;-63
2022/11/23 06:28:57;;;;;;;18.63;3.55;;;;;;;9.09;77.20;99422.78;3613429;39;20046;-63
2022/11/23 06:31:22;;;;;;;14.95;3.25;;;;;;;9.12;77.79;99425.25;3615020;39;20047;-64
2022/11/23 06:33:48;;;;;;;16.48;3.28;;;;;;;9.13;77.01;99425.09;3612987;39;20061;-64
2022/11/23 06:36:14;;;;;;;16.50;3.13;;;;;;;9.17;77.90;99439.16;3614888;39;20061;-64
2022/11/23 06:38:40;;;;;;;16.55;3.55;;;;;;;9.14;78.03;99432.19;3615420;39;20376;-63
2022/11/23 06:41:06;;;;;;;19.92;3.78;;;;;;;9.13;77.81;99434.97;3616777;39;20134;-66
2022/11/23 06:43:31;;;;;;;16.08;2.97;;;;;;;9.19;77.46;99446.06;3607413;39;20065;-63
2022/11/23 06:45:57;;;;;;;12.27;3.05;;;;;;;9.15;76.99;99438.41;3616647;39;20071;-63
2022/11/23 06:48:23;;;;;;;13.75;2.65;;;;;;;8.93;77.46;99405.22;3615994;39;20047;-64
2022/11/23 06:50:49;;;;;;;12.93;2.75;;;;;;;9.14;76.78;99436.72;3613645;39;20285;-62
2022/11/23 06:53:15;;;;;;;15.38;3.13;;;;;;;9.10;77.37;99451.31;3615018;39;20062;-63
2022/11/23 06:55:41;;;;;;;12.88;2.80;;;;;;;9.02;76.46;99434.00;3618046;39;20058;-63
2022/11/23 06:58:07;;;;;;;11.52;2.90;;;;;;;9.07;76.54;99450.59;3614840;39;20055;-63
2022/11/23 07:00:33;;;;;;;14.02;2.97;;;;;;;9.05;76.59;99449.84;3620770;39;20061;-63
2022/11/23 07:02:59;;;;;;;15.48;3.40;;;;;;;8.36;76.77;99349.78;3615071;39;20059;-63
2022/11/23 07:05:26;;;;;;;15.55;3.03;;;;;;;9.00;76.74;99462.72;3617296;39;20051;-64
2022/11/23 07:07:52;;;;;;;11.90;2.50;;;;;;;8.99;76.40;99460.19;3615403;39;20050;-63
2022/11/23 07:10:19;;;;;;;11.85;3.00;;;;;;;8.98;76.77;99470.06;3613379;39;20039;-64
2022/11/23 07:12:45;;;;;;;15.20;3.10;;;;;;;8.98;76.18;99470.06;3616441;39;20120;-64
2022/11/23 07:15:12;;;;;;;14.07;3.15;;;;;;;8.92;76.08;99467.00;3617666;39;20057;-65
2022/11/23 07:17:43;;;;;;;15.35;3.25;;;;;;;8.94;75.84;99479.28;3620241;39;20131;-65
2022/11/23 07:20:11;;;;;;;12.48;3.05;;;;;;;8.92;76.44;99488.44;3617232;39;20054;-65
2022/11/23 07:22:38;;;;;;;12.75;2.70;;;;;;;8.88;76.21;99485.13;3612992;39;20104;-65
2022/11/23 07:25:05;;;;;;;12.18;2.90;;;;;;;8.79;75.92;99480.47;3614872;39;20057;-65
2022/11/23 07:27:30;;;;;;;11.13;2.47;;;;;;;8.82;75.63;99497.19;3617504;39;20066;-65
2022/11/23 07:29:56;;;;;;;9.05;2.50;;;;;;;8.79;75.78;99493.88;3615712;39;20150;-65
2022/11/23 07:32:21;;;;;;;14.57;2.80;;;;;;;8.74;75.89;99493.34;3618556;39;20054;-65
2022/11/23 07:34:47;;;;;;;11.82;2.72;;;;;;;8.71;75.91;99498.94;3615862;39;20132;-65
2022/11/23 07:37:13;;;;;;;8.52;2.67;;;;;;;8.66;76.43;99501.09;3620647;39;20054;-65
2022/11/23 07:39:38;;;;;;;12.15;3.40;;;;;;;8.61;76.80;99498.78;3615067;39;20050;-64
2022/11/23 07:42:04;;;;;;;10.15;3.00;;;;;;;8.56;76.00;99500.94;3614928;39;20054;-65
2022/11/23 07:44:30;;;;;;;13.20;3.00;;;;;;;8.56;76.39;99504.50;3615727;39;20125;-64
2022/11/23 07:46:55;;;;;;;12.48;2.63;;;;;;;8.58;75.73;99510.59;3614616;39;20309;-65
2022/11/23 07:49:21;;;;;;;12.48;2.60;;;;;;;8.60;75.57;99514.00;3614144;39;20053;-65
2022/11/23 07:51:46;;;;;;;14.25;3.25;;;;;;;8.60;75.36;99516.69;3615245;39;20071;-65
2022/11/23 07:54:12;;;;;;;9.80;2.95;;;;;;;8.57;76.12;99510.72;3615285;39;20142;-64
2022/11/23 07:56:37;;;;;;;12.75;2.60;;;;;;;8.59;76.29;99528.38;3619312;39;20062;-65
2022/11/23 07:59:03;;;;;;;13.57;3.17;;;;;;;8.58;75.79;99528.47;3614850;39;20055;-65
2022/11/23 08:01:30;;;;;;;14.00;4.10;;;;;;;8.58;75.17;99520.44;3616839;39;20377;-65
2022/11/23 08:03:56;;;;;;;17.90;3.95;;;;;;;8.58;75.37;99523.97;3617140;39;20059;-65
2022/11/23 08:06:22;;;;;;;16.73;3.42;;;;;;;8.63;74.82;99533.47;3615408;39;20050;-65
2022/11/23 08:08:47;;;;;;;14.82;2.88;;;;;;;8.62;74.74;99524.59;3614849;39;20396;-65
2022/11/23 08:11:15;;;;;;;10.90;2.75;;;;;;;8.40;75.07;99482.50;3614350;39;20077;-65
2022/11/23 08:13:41;;;;;;;17.83;2.95;;;;;;;8.57;74.61;99519.59;3619310;39;20043;-65
2022/11/23 08:16:07;;;;;;;10.80;2.97;;;;;;;8.63;74.76;99520.09;3615566;39;20051;-65
2022/11/23 08:18:33;;;;;;;12.25;2.80;;;;;;;8.66;73.85;99528.78;3614332;39;20351;-65
2022/11/23 08:21:00;;;;;;;12.30;3.08;;;;;;;8.67;74.48;99510.88;3614779;39;20067;-65
2022/11/23 08:23:25;;;;;;;10.57;2.53;;;;;;;8.61;73.91;99506.81;3614941;39;20073;-65
2022/11/23 08:25:51;;;;;;;12.32;3.35;;;;;;;8.76;74.34;99524.44;3612833;39;20405;-64
2022/11/23 08:28:17;;;;;;;15.88;3.10;;;;;;;8.76;73.53;99528.94;3617798;39;20389;-64
2022/11/23 08:30:43;;;;;;;11.40;3.33;;;;;;;8.54;73.59;99486.84;3613166;39;20086;-64
2022/11/23 08:33:11;;;;;;;10.45;2.75;;;;;;;8.53;73.24;99479.75;3614152;39;21225;-64
2022/11/23 08:35:39;;;;;;;11.80;2.83;;;;;;;8.90;73.61;99538.59;3617232;39;20075;-64
2022/11/23 08:38:07;;;;;;;8.75;3.17;;;;;;;8.90;73.39;99531.41;3618269;39;20378;-65
2022/11/23 08:40:35;;;;;;;13.05;3.00;;;;;;;8.90;73.62;99544.81;3619004;39;20054;-64
2022/11/23 08:43:01;;;;;;;10.35;2.53;;;;;;;8.93;73.07;99541.91;3619290;39;20075;-65
2022/11/23 08:45:27;;;;;;;12.32;2.60;;;;;;;8.96;72.30;99541.66;3622002;39;20046;-64
2022/11/23 08:47:54;;;;;;;15.70;2.97;;;;;;;8.97;72.45;99537.16;3620678;39;20051;-64
2022/11/23 08:50:20;;;;;;;12.48;3.08;;;;;;;8.98;72.22;99537.06;3616563;39;20043;-64
2022/11/23 08:52:46;;;;;;;15.50;3.28;;;;;;;9.01;72.20;99541.34;3613477;39;20385;-63
2022/11/23 08:55:13;;;;;;;13.93;3.10;;;;;;;8.99;71.77;99535.22;3618694;39;20051;-63
2022/11/23 08:57:39;;;;;;;15.23;2.88;;;;;;;9.02;71.80;99545.72;3621666;39;20058;-64
2022/11/23 09:00:05;;;;;;;9.63;2.95;;;;;;;9.09;71.96;99540.75;3619828;39;20060;-63
2022/11/23 09:02:31;;;;;;;15.07;2.58;;;;;;;9.13;71.99;99536.84;3620622;39;20046;-64
2022/11/23 09:04:57;;;;;;;13.02;2.83;;;;;;;9.14;70.82;99542.09;3619089;39;20585;-64
2022/11/23 09:07:22;;;;;;;11.45;2.78;;;;;;;9.15;71.66;99534.91;3621888;39;20042;-66
2022/11/23 09:09:48;;;;;;;13.60;2.70;;;;;;;9.18;71.59;99519.44;3618789;39;20047;-65
2022/11/23 09:12:13;;;;;;;9.85;2.88;;;;;;;9.16;71.11;99516.00;3617823;39;20042;-65
2022/11/23 09:14:39;;;;;;;13.60;2.97;;;;;;;9.20;71.35;99535.44;3621125;39;20348;-66
2022/11/23 09:17:05;;;;;;;14.27;3.08;;;;;;;9.09;70.81;99498.69;3615554;39;20058;-65
2022/11/23 09:19:30;;;;;;;12.13;2.83;;;;;;;9.24;70.39;99523.50;3616424;39;20113;-64
2022/11/23 09:21:56;;;;;;;12.82;2.50;;;;;;;9.22;70.90;99514.69;3612801;39;20286;-65
2022/11/23 09:24:22;;;;;;;9.98;2.80;;;;;;;9.28;70.21;99515.06;3617099;39;20087;-65
2022/11/23 09:26:48;;;;;;;11.05;2.50;;;;;;;9.12;70.27;99473.50;3620890;39;20055;-65
2022/11/23 09:29:14;;;;;;;11.93;2.33;;;;;;;9.28;70.09;99480.22;3609253;39;20278;-65
2022/11/23 09:31:40;;;;;;;13.32;2.67;;;;;;;9.51;70.08;99510.63;3619048;39;20062;-65
2022/11/23 09:34:05;;;;;;;12.95;2.88;;;;;;;9.58;69.31;99513.66;3618749;39;20148;-65
2022/11/23 09:36:31;;;;;;;10.23;2.60;;;;;;;9.64;68.77;99512.31;3618787;39;20421;-65
2022/11/23 09:38:57;;;;;;;14.77;3.03;;;;;;;9.81;68.63;99511.84;3618813;39;20059;-65
2022/11/23 09:41:37;;;;;;;9.20;2.65;;;;;;;9.96;67.63;99501.72;3615781;39;20112;-65
2022/11/23 09:44:34;;;;;;;11.13;2.10;;;;;;;10.09;67.38;99498.88;3617087;39;20108;-65
2022/11/23 09:47:55;;;;;;;8.90;2.85;;;;;;;10.25;66.92;99502.03;3618073;39;20066;-65
2022/11/23 09:50:42;;;;;;;10.55;2.60;;;;;;;10.39;65.31;99485.66;3620293;39;20047;-65
2022/11/23 09:53:19;;;;;;;11.68;2.45;;;;;;;10.57;64.56;99487.81;3619462;39;20065;-65
2022/11/23 09:55:50;;;;;;;8.88;2.47;;;;;;;10.69;64.48;99470.66;3615789;39;20055;-65
2022/11/23 09:58:23;;;;;;;10.68;2.05;;;;;;;10.88;63.92;99481.56;3616446;39;20059;-65
2022/11/23 10:01:03;;;;;;;15.32;2.50;;;;;;;11.08;63.61;99476.31;3618637;39;20054;-65
2022/11/23 10:03:36;;;;;;;6.88;2.50;;;;;;;11.27;62.63;99457.59;3618856;39;20066;-65
2022/11/23 10:06:28;;;;;;;12.67;2.57;;;;;;;11.47;62.09;99473.84;3618434;39;20313;-65
2022/11/23 10:09:49;;;;;;;9.07;2.08;;;;;;;11.67;60.72;99464.00;3620455;39;20320;-65
2022/11/23 10:12:49;;;;;;;7.90;2.20;;;;;;;11.95;60.39;99460.59;3617849;39;20045;-65
2022/11/23 10:15:28;;;;;;;8.73;2.17;;;;;;;12.09;59.73;99454.00;3620510;39;20060;-63
2022/11/23 10:18:14;;;;;;;9.88;2.67;;;;;;;12.31;59.76;99445.66;3620652;39;20049;-65
2022/11/23 10:21:15;;;;;;;12.15;2.30;;;;;;;12.47;58.87;99460.44;3619042;39;20060;-63
2022/11/23 10:24:10;;;;;;;13.48;2.45;;;;;;;12.48;58.75;99454.06;3621038;39;20054;-64
2022/11/23 10:26:43;;;;;;;7.32;1.83;;;;;;;12.62;58.74;99426.66;3620812;39;20054;-63
2022/11/23 10:29:33;;;;;;;6.70;2.10;;;;;;;12.99;57.10;99451.03;3620549;39;20047;-63
2022/11/23 10:31:59;;;;;;;8.32;2.25;;;;;;;13.15;57.16;99450.44;3617592;39;20439;-63
2022/11/23 10:34:57;;;;;;;8.65;2.47;;;;;;;13.20;56.67;99460.81;3619912;39;20067;-63
2022/11/23 10:37:23;;;;;;;8.32;2.28;;;;;;;13.22;56.21;99451.59;3618158;39;20066;-64
2022/11/23 10:39:49;;;;;;;8.23;2.25;;;;;;;13.30;56.05;99447.34;3618993;39;20050;-63
2022/11/23 10:42:43;;;;;;;9.88;2.65;;;;;;;13.34;55.72;99448.75;3621268;39;20309;-64
2022/11/23 10:45:28;;;;;;;9.93;2.80;;;;;;;13.60;56.14;99455.19;3610832;39;20055;-63
2022/11/23 10:47:59;;;;;;;8.15;2.55;;;;;;;13.60;54.63;99443.53;3615969;39;20107;-63
2022/11/23 10:50:26;;;;;;;8.57;2.70;;;;;;;13.54;55.14;99450.41;3618846;39;20078;-63
2022/11/23 10:52:56;;;;;;;11.20;2.78;;;;;;;13.32;55.31;99451.59;3617529;39;20063;-63
2022/11/23 10:55:45;;;;;;;7.45;2.47;;;;;;;13.01;56.78;99437.44;3617974;39;20054;-63
2022/11/23 10:58:33;;;;;;;8.18;2.22;;;;;;;12.86;57.64;99428.06;3619914;39;20098;-63
2022/11/23 11:01:23;;;;;;;8.35;2.22;;;;;;;12.62;56.84;99383.53;3619086;39;20068;-63
2022/11/23 11:03:52;;;;;;;5.35;2.10;;;;;;;12.88;56.84;99431.50;3618011;39;20068;-63
2022/11/23 11:06:27;;;;;;;8.57;2.50;;;;;;;13.04;57.68;99426.34;3622932;39;20054;-63
2022/11/23 11:08:57;;;;;;;7.30;2.17;;;;;;;13.36;57.39;99426.00;3621990;39;20305;-63
2022/11/23 11:11:38;;;;;;;9.15;2.65;;;;;;;13.56;56.09;99415.97;3620681;39;20051;-62
2022/11/23 11:14:19;;;;;;;5.93;1.90;;;;;;;13.38;55.61;99412.34;3618108;39;20058;-64
2022/11/23 11:16:56;;;;;;;7.75;1.70;;;;;;;12.79;56.00;99379.25;3613985;39;20092;-64
2022/11/23 11:19:27;;;;;;;4.45;1.80;;;;;;;12.81;56.60;99420.41;3620063;39;20043;-63
2022/11/23 11:21:54;;;;;;;7.38;1.85;;;;;;;12.59;57.50;99410.78;3618839;39;20050;-63
2022/11/23 11:24:45;;;;;;;7.20;1.95;;;;;;;12.54;58.10;99407.66;3618602;39;20115;-63
2022/11/23 11:27:23;;;;;;;8.38;2.35;;;;;;;12.50;58.11;99407.09;3618898;39;20053;-63
2022/11/23 11:30:02;;;;;;;4.22;1.70;;;;;;;12.64;57.79;99395.03;3619303;39;20059;-64
2022/11/23 11:32:57;;;;;;;7.90;2.15;;;;;;;12.97;57.63;99380.22;3620423;39;20047;-65
2022/11/23 11:35:34;;;;;;;6.55;1.83;;;;;;;13.35;56.31;99381.13;3618524;39;20481;-63
2022/11/23 11:38:20;;;;;;;3.63;1.48;;;;;;;13.14;55.67;99354.31;3619347;39;20120;-63
2022/11/23 11:40:51;;;;;;;6.05;1.65;;;;;;;13.37;55.50;99378.28;3618131;39;20123;-63
2022/11/23 11:43:37;;;;;;;4.68;1.45;;;;;;;13.38;56.03;99366.47;3607317;39;20050;-63
2022/11/23 11:46:22;;;;;;;3.88;2.08;;;;;;;13.69;55.91;99365.16;3621389;39;20058;-63